Time;durP1;ratioP1;P1;durP2;ratioP2;P2;SDS_P1;SDS_P2;PMS_P1;PMS_P2;Temp;Humidity;BMP_temperature;BMP_pressure;BME280_temperature;BME280_humidity;BME280_pressure;Samples;Min_cycle;Max_cycle;Signal;HPM_P1;HPM_P2
2022/06/30 00:01:33;;;;;;;4.33;4.13;;;22.40;48.40;;;;;;4896894;29;21208;-60
2022/06/30 00:03:59;;;;;;;4.63;4.43;;;22.40;48.40;;;;;;4899625;29;20268;-60
2022/06/30 00:06:25;;;;;;;3.90;3.70;;;22.40;48.40;;;;;;4905128;29;20179;-60
2022/06/30 00:08:52;;;;;;;4.20;4.00;;;22.40;48.40;;;;;;4899607;29;20179;-59
2022/06/30 00:11:18;;;;;;;4.80;4.50;;;22.40;48.40;;;;;;4897007;29;20199;-61
2022/06/30 00:13:44;;;;;;;4.20;3.90;;;22.40;48.40;;;;;;4900982;29;20448;-61
2022/06/30 00:16:10;;;;;;;4.07;3.87;;;22.40;48.50;;;;;;4906910;29;20438;-59
2022/06/30 00:18:35;;;;;;;4.90;4.50;;;22.40;48.40;;;;;;4904953;29;20191;-58
2022/06/30 00:21:01;;;;;;;4.80;4.50;;;22.40;48.40;;;;;;4905575;29;20191;-59
2022/06/30 00:23:27;;;;;;;4.57;4.37;;;22.40;48.40;;;;;;4905601;29;20191;-59
2022/06/30 00:25:53;;;;;;;5.33;5.03;;;22.50;48.40;;;;;;4906065;29;20733;-61
2022/06/30 00:28:20;;;;;;;4.50;4.30;;;22.50;48.30;;;;;;4904554;29;20250;-58
2022/06/30 00:30:50;;;;;;;4.60;4.40;;;22.40;48.30;;;;;;4902865;29;21391;-58
2022/06/30 00:33:16;;;;;;;4.30;4.10;;;22.40;48.20;;;;;;4906413;29;20494;-59
2022/06/30 00:35:42;;;;;;;4.63;4.43;;;22.40;48.30;;;;;;4907184;29;21189;-61
2022/06/30 00:38:07;;;;;;;4.70;4.40;;;22.40;48.20;;;;;;4905251;29;20441;-59
2022/06/30 00:40:38;;;;;;;4.57;4.37;;;22.40;48.20;;;;;;4906895;29;20751;-58
2022/06/30 00:43:04;;;;;;;5.07;4.87;;;22.40;48.20;;;;;;4904955;29;20918;-61
2022/06/30 00:45:30;;;;;;;5.27;4.97;;;22.40;48.20;;;;;;4906063;29;20557;-60
2022/06/30 00:47:55;;;;;;;4.90;4.60;;;22.40;48.20;;;;;;4904797;29;20274;-61
2022/06/30 00:50:21;;;;;;;4.77;4.57;;;22.40;48.20;;;;;;4902893;29;20297;-58
2022/06/30 00:52:50;;;;;;;5.50;5.20;;;22.40;48.20;;;;;;4901237;29;21104;-59
2022/06/30 00:55:17;;;;;;;4.87;4.60;;;22.40;48.20;;;;;;4906038;29;20214;-60
2022/06/30 00:57:44;;;;;;;5.07;4.87;;;22.40;48.20;;;;;;4903731;29;20437;-62
2022/06/30 01:00:11;;;;;;;4.73;4.53;;;22.40;48.20;;;;;;4907407;29;20545;-58
2022/06/30 01:02:37;;;;;;;4.50;4.30;;;22.40;48.10;;;;;;4895334;29;20457;-58
2022/06/30 01:05:03;;;;;;;4.90;4.70;;;22.40;48.10;;;;;;4897752;29;20532;-58
2022/06/30 01:07:30;;;;;;;5.30;5.00;;;22.40;48.10;;;;;;4902697;29;20940;-60
2022/06/30 01:12:44;;;;;;;5.63;5.33;;;22.40;48.10;;;;;;4902670;29;20481;-61
2022/06/30 01:15:15;;;;;;;5.60;5.30;;;22.40;48.10;;;;;;4903467;29;20967;-59
2022/06/30 01:17:41;;;;;;;5.30;5.00;;;22.40;48.10;;;;;;4901075;29;20472;-63
2022/06/30 01:20:07;;;;;;;5.70;5.40;;;22.40;48.10;;;;;;4905795;29;20442;-58
2022/06/30 01:22:33;;;;;;;6.27;5.97;;;22.40;48.10;;;;;;4907315;29;20201;-58
2022/06/30 01:24:58;;;;;;;5.57;5.17;;;22.40;48.10;;;;;;4906766;29;20473;-60
2022/06/30 01:27:24;;;;;;;5.30;5.00;;;22.40;48.10;;;;;;4909768;29;20651;-58
2022/06/30 01:29:50;;;;;;;5.30;5.00;;;22.40;48.20;;;;;;4908174;29;20183;-59
2022/06/30 01:32:16;;;;;;;5.47;5.17;;;22.40;48.10;;;;;;4908845;29;20548;-61
2022/06/30 01:34:42;;;;;;;5.33;5.03;;;22.40;48.10;;;;;;4906540;29;20458;-59
2022/06/30 01:37:08;;;;;;;5.53;5.33;;;22.40;48.10;;;;;;4909526;29;20188;-59
2022/06/30 01:39:34;;;;;;;6.03;5.73;;;22.40;48.10;;;;;;4908392;29;20650;-58
2022/06/30 01:42:00;;;;;;;6.00;5.70;;;22.40;48.20;;;;;;4915532;29;20538;-60
2022/06/30 01:44:26;;;;;;;5.20;4.90;;;22.40;48.10;;;;;;4908618;29;20250;-60
2022/06/30 01:46:51;;;;;;;5.90;5.60;;;22.40;48.10;;;;;;4907764;29;20528;-59
2022/06/30 01:49:18;;;;;;;5.97;5.67;;;22.40;48.10;;;;;;4907063;29;20196;-59
2022/06/30 01:51:43;;;;;;;5.97;5.67;;;22.40;48.10;;;;;;4912382;29;20190;-63
2022/06/30 01:54:10;;;;;;;6.07;5.77;;;22.40;48.10;;;;;;4906842;29;21050;-58
2022/06/30 01:56:36;;;;;;;6.07;5.67;;;22.40;48.10;;;;;;4911612;29;21309;-60
2022/06/30 01:59:02;;;;;;;5.23;5.03;;;22.40;48.20;;;;;;4910806;29;20467;-58
2022/06/30 02:01:28;;;;;;;6.13;5.83;;;22.40;48.10;;;;;;4907742;29;20532;-58
2022/06/30 02:03:54;;;;;;;5.70;5.40;;;22.40;48.20;;;;;;4907195;29;20563;-62
2022/06/30 02:06:19;;;;;;;6.17;5.80;;;22.40;48.20;;;;;;4911341;29;20701;-59
2022/06/30 02:08:45;;;;;;;5.87;5.57;;;22.40;48.20;;;;;;4906547;29;21481;-62
2022/06/30 02:11:10;;;;;;;5.60;5.30;;;22.40;48.20;;;;;;4904407;29;20199;-59
2022/06/30 02:13:36;;;;;;;6.20;5.90;;;22.40;48.20;;;;;;4903981;29;20187;-59
2022/06/30 02:16:02;;;;;;;6.70;6.10;;;22.40;48.20;;;;;;4910736;29;20238;-59
2022/06/30 02:18:27;;;;;;;6.57;6.23;;;22.40;48.20;;;;;;4909930;29;20187;-59
2022/06/30 02:20:53;;;;;;;5.97;5.57;;;22.40;48.20;;;;;;4908550;29;20215;-59
2022/06/30 02:23:19;;;;;;;6.50;6.10;;;22.40;48.20;;;;;;4907230;29;20199;-59
2022/06/30 02:25:45;;;;;;;5.93;5.60;;;22.40;48.30;;;;;;4912014;29;20883;-60
2022/06/30 02:28:10;;;;;;;6.83;6.43;;;22.40;48.20;;;;;;4908968;29;20526;-60
2022/06/30 02:30:36;;;;;;;6.23;5.93;;;22.40;48.20;;;;;;4911486;29;20186;-59
2022/06/30 02:33:03;;;;;;;7.43;7.03;;;22.40;48.20;;;;;;4910409;29;20198;-59
2022/06/30 02:35:28;;;;;;;6.17;5.77;;;22.40;48.30;;;;;;4907794;29;20501;-58
2022/06/30 02:37:54;;;;;;;6.40;5.90;;;22.40;48.30;;;;;;4908788;29;20446;-58
2022/06/30 02:40:21;;;;;;;6.43;6.03;;;22.40;48.30;;;;;;4908397;29;20283;-59
2022/06/30 02:42:46;;;;;;;6.03;5.73;;;22.40;48.30;;;;;;4909002;29;20548;-61
2022/06/30 02:45:12;;;;;;;6.90;6.40;;;22.40;48.30;;;;;;4907214;29;20469;-61
2022/06/30 02:47:42;;;;;;;6.00;5.70;;;22.40;48.30;;;;;;4910719;29;20191;-59
2022/06/30 02:50:11;;;;;;;6.00;5.70;;;22.40;48.30;;;;;;4909426;29;20438;-58
2022/06/30 02:52:37;;;;;;;6.93;6.40;;;22.40;48.30;;;;;;4908303;29;20435;-59
2022/06/30 02:55:04;;;;;;;6.40;6.10;;;22.40;48.30;;;;;;4889797;29;20474;-58
2022/06/30 02:57:30;;;;;;;6.23;5.93;;;22.40;48.30;;;;;;4907726;29;20429;-59
2022/06/30 02:59:56;;;;;;;5.80;5.50;;;22.40;48.30;;;;;;4906963;29;20429;-63
2022/06/30 03:02:22;;;;;;;6.37;5.70;;;22.40;48.40;;;;;;4908862;29;20201;-59
2022/06/30 03:04:49;;;;;;;6.13;5.80;;;22.40;48.30;;;;;;4905496;29;20291;-62
2022/06/30 03:07:15;;;;;;;6.70;6.30;;;22.40;48.40;;;;;;4911871;29;20441;-62
2022/06/30 03:09:42;;;;;;;7.20;6.80;;;22.40;48.40;;;;;;4909196;29;20438;-58
2022/06/30 03:12:08;;;;;;;6.07;5.67;;;22.40;48.40;;;;;;4909393;29;20513;-59
2022/06/30 03:14:33;;;;;;;6.40;6.00;;;22.40;48.30;;;;;;4906821;29;21207;-59
2022/06/30 03:16:59;;;;;;;7.00;6.50;;;22.40;48.40;;;;;;4907126;29;20195;-59
2022/06/30 03:19:24;;;;;;;6.33;6.03;;;22.40;48.40;;;;;;4907985;29;20195;-62
2022/06/30 03:21:53;;;;;;;6.83;6.43;;;22.40;48.40;;;;;;4908955;29;20331;-58
2022/06/30 03:24:19;;;;;;;6.20;5.90;;;22.40;48.40;;;;;;4902127;29;20239;-59
2022/06/30 03:26:45;;;;;;;5.40;5.20;;;22.40;48.40;;;;;;4906128;29;20446;-58
2022/06/30 03:29:10;;;;;;;6.37;6.07;;;22.40;48.40;;;;;;4889280;29;20183;-61
2022/06/30 03:31:37;;;;;;;6.37;5.97;;;22.40;48.40;;;;;;4908137;29;20702;-58
2022/06/30 03:34:03;;;;;;;6.50;6.20;;;22.40;48.40;;;;;;4908006;29;20267;-59
2022/06/30 03:36:28;;;;;;;6.73;6.10;;;22.40;48.40;;;;;;4905346;29;20521;-58
2022/06/30 03:38:54;;;;;;;6.07;5.77;;;22.40;48.40;;;;;;4905232;29;20195;-58
2022/06/30 03:41:20;;;;;;;6.17;5.80;;;22.40;48.40;;;;;;4908205;29;20736;-58
2022/06/30 03:43:46;;;;;;;6.33;5.93;;;22.40;48.40;;;;;;4902648;29;20199;-62
2022/06/30 03:46:12;;;;;;;6.40;6.10;;;22.40;48.40;;;;;;4907630;29;20542;-62
2022/06/30 03:48:38;;;;;;;5.80;5.50;;;22.40;48.50;;;;;;4905742;29;20186;-58
2022/06/30 03:51:04;;;;;;;5.80;5.43;;;22.40;48.50;;;;;;4911403;29;20463;-58
2022/06/30 03:53:29;;;;;;;6.37;5.97;;;22.40;48.40;;;;;;4906760;29;20710;-59
2022/06/30 03:55:56;;;;;;;6.10;5.80;;;22.40;48.40;;;;;;4912168;29;20195;-61
2022/06/30 03:58:22;;;;;;;6.10;5.73;;;22.40;48.50;;;;;;4906436;29;20245;-61
2022/06/30 04:00:47;;;;;;;5.90;5.60;;;22.40;48.50;;;;;;4906502;29;20692;-58
2022/06/30 04:03:13;;;;;;;6.17;5.77;;;22.40;48.50;;;;;;4908351;29;20433;-63
2022/06/30 04:05:40;;;;;;;5.90;5.60;;;22.40;48.40;;;;;;4907882;29;20697;-61
2022/06/30 04:08:06;;;;;;;6.23;5.83;;;22.40;48.50;;;;;;4895440;29;20187;-58
2022/06/30 04:10:32;;;;;;;5.80;5.50;;;22.40;48.50;;;;;;4907251;29;20459;-59
2022/06/30 04:12:57;;;;;;;6.20;5.60;;;22.40;48.50;;;;;;4902664;29;20266;-59
2022/06/30 04:15:23;;;;;;;5.70;5.40;;;22.40;48.50;;;;;;4898354;29;20266;-58
2022/06/30 04:17:49;;;;;;;5.40;5.00;;;22.40;48.50;;;;;;4905021;29;20847;-59
2022/06/30 04:20:17;;;;;;;5.53;5.23;;;22.40;48.50;;;;;;4907082;29;21032;-62
2022/06/30 04:22:53;;;;;;;5.60;5.30;;;22.40;48.50;;;;;;4901744;29;20194;-63
2022/06/30 04:25:19;;;;;;;5.93;5.63;;;22.40;48.50;;;;;;4904944;29;20473;-59
2022/06/30 04:27:50;;;;;;;6.10;5.80;;;22.40;48.50;;;;;;4909951;29;20476;-63
2022/06/30 04:32:37;;;;;;;6.33;5.93;;;22.40;48.50;;;;;;4901050;29;20445;-60
2022/06/30 04:33:02;;;;;;;5.90;5.60;;;22.40;48.60;;;;;;4894944;29;20434;-60
2022/06/30 04:35:28;;;;;;;6.40;6.00;;;22.40;48.50;;;;;;4895487;29;20445;-61
2022/06/30 04:37:57;;;;;;;5.90;5.60;;;22.40;48.60;;;;;;4904917;29;20441;-58
2022/06/30 04:43:08;;;;;;;5.00;4.80;;;22.50;48.70;;;;;;4901756;29;20526;-58
2022/06/30 04:45:33;;;;;;;5.80;5.50;;;22.50;48.70;;;;;;4899641;29;21274;-60
2022/06/30 04:47:59;;;;;;;5.83;5.53;;;22.50;48.60;;;;;;4906131;29;20196;-60
2022/06/30 04:50:25;;;;;;;6.17;5.77;;;22.50;48.70;;;;;;4909158;29;20880;-61
2022/06/30 04:52:51;;;;;;;5.43;5.13;;;22.50;48.70;;;;;;4904222;29;20303;-59
2022/06/30 04:55:17;;;;;;;5.60;5.30;;;22.50;48.70;;;;;;4899964;29;20330;-62
2022/06/30 04:57:42;;;;;;;5.90;5.60;;;22.50;48.70;;;;;;4909089;29;20183;-62
2022/06/30 05:00:08;;;;;;;5.20;5.00;;;22.50;48.80;;;;;;4907083;29;20473;-64
2022/06/30 05:02:34;;;;;;;5.83;5.53;;;22.50;48.80;;;;;;4903258;29;20307;-59
2022/06/30 05:04:59;;;;;;;6.03;5.73;;;22.50;48.80;;;;;;4900299;29;20481;-62
2022/06/30 05:07:25;;;;;;;6.00;5.70;;;22.60;48.90;;;;;;4900217;29;20232;-65
2022/06/30 05:09:51;;;;;;;5.60;5.30;;;22.50;48.80;;;;;;4901587;29;20247;-60
2022/06/30 05:12:16;;;;;;;5.40;5.10;;;22.60;48.90;;;;;;4901070;29;21811;-61
2022/06/30 05:14:42;;;;;;;5.63;5.30;;;22.60;49.00;;;;;;4880120;29;20259;-59
2022/06/30 05:17:07;;;;;;;5.63;5.33;;;22.60;49.00;;;;;;4905058;29;20754;-63
2022/06/30 05:19:34;;;;;;;5.10;4.90;;;22.50;49.00;;;;;;4901073;29;20196;-60
2022/06/30 05:22:00;;;;;;;4.60;4.40;;;22.50;48.90;;;;;;4901198;29;20192;-69
2022/06/30 05:27:12;;;;;;;5.00;4.70;;;22.50;48.90;;;;;;4901851;29;20461;-61
2022/06/30 05:29:37;;;;;;;5.50;5.03;;;22.50;49.00;;;;;;4904344;29;20442;-61
2022/06/30 05:32:03;;;;;;;5.43;5.13;;;22.50;49.00;;;;;;4905817;29;20927;-62
2022/06/30 05:34:29;;;;;;;5.27;4.97;;;22.50;49.00;;;;;;4903524;29;21506;-70
2022/06/30 05:36:54;;;;;;;5.77;5.27;;;22.50;49.00;;;;;;4896998;29;20239;-67
2022/06/30 05:39:20;;;;;;;5.00;4.70;;;22.50;49.00;;;;;;4901184;29;20191;-66
2022/06/30 05:41:45;;;;;;;5.33;5.03;;;22.50;49.00;;;;;;4899247;29;20192;-65
2022/06/30 05:44:11;;;;;;;5.33;5.10;;;22.50;49.00;;;;;;4900618;29;20211;-60
2022/06/30 05:46:36;;;;;;;5.33;4.93;;;22.50;49.00;;;;;;4893162;29;20184;-70
2022/06/30 05:49:04;;;;;;;5.33;5.03;;;22.50;49.00;;;;;;4894460;29;20187;-59
2022/06/30 05:51:30;;;;;;;4.73;4.53;;;22.50;48.90;;;;;;4904323;29;20188;-64
2022/06/30 05:53:55;;;;;;;5.70;5.20;;;22.50;49.00;;;;;;4902500;29;20981;-68
2022/06/30 05:56:21;;;;;;;4.87;4.67;;;22.50;49.00;;;;;;4903960;29;20246;-59
2022/06/30 05:58:47;;;;;;;5.03;4.80;;;22.50;49.00;;;;;;4904674;29;20191;-66
2022/06/30 06:01:12;;;;;;;6.03;5.00;;;22.50;49.00;;;;;;4900582;29;20184;-60
2022/06/30 06:03:38;;;;;;;4.97;4.77;;;22.50;49.10;;;;;;4901142;29;20707;-66
2022/06/30 06:06:03;;;;;;;4.90;4.70;;;22.50;49.10;;;;;;4909420;29;20250;-59
2022/06/30 06:08:29;;;;;;;5.30;5.10;;;22.50;49.10;;;;;;4909713;29;20203;-59
2022/06/30 06:10:54;;;;;;;5.63;5.33;;;22.50;49.10;;;;;;4903885;29;20235;-61
2022/06/30 06:13:20;;;;;;;4.60;4.40;;;22.50;49.10;;;;;;4907845;29;20201;-61
2022/06/30 06:15:46;;;;;;;5.47;5.07;;;22.50;49.10;;;;;;4899746;29;20219;-61
2022/06/30 06:18:11;;;;;;;5.80;5.50;;;22.50;49.90;;;;;;4910171;29;20198;-61
2022/06/30 06:20:37;;;;;;;6.00;5.60;;;22.50;49.10;;;;;;4908219;29;21128;-61
2022/06/30 06:23:03;;;;;;;5.70;5.40;;;22.50;49.10;;;;;;4906992;29;20219;-71
2022/06/30 06:25:29;;;;;;;6.20;4.90;;;22.60;49.30;;;;;;4910602;29;20564;-59
2022/06/30 06:30:40;;;;;;;6.20;5.80;;;22.50;49.10;;;;;;4912655;29;20456;-70
2022/06/30 06:33:05;;;;;;;5.10;4.90;;;22.50;49.10;;;;;;4914115;29;20548;-65
2022/06/30 06:35:31;;;;;;;5.57;5.27;;;22.60;49.30;;;;;;4912192;29;20529;-58
2022/06/30 06:37:56;;;;;;;5.30;5.00;;;22.50;49.10;;;;;;4905538;29;20547;-60
2022/06/30 06:40:22;;;;;;;6.10;5.70;;;22.50;49.10;;;;;;4912053;29;20203;-59
2022/06/30 06:42:47;;;;;;;4.77;4.57;;;22.50;49.10;;;;;;4906050;29;20191;-63
2022/06/30 06:45:13;;;;;;;5.17;4.77;;;22.50;49.20;;;;;;4913166;29;20239;-60
2022/06/30 06:47:39;;;;;;;5.30;5.00;;;22.50;49.10;;;;;;4914430;29;20624;-60
2022/06/30 06:50:06;;;;;;;5.83;5.43;;;22.50;49.10;;;;;;4909760;29;20195;-62
2022/06/30 06:52:32;;;;;;;5.03;4.73;;;22.50;49.10;;;;;;4909941;29;20270;-59
2022/06/30 06:54:58;;;;;;;5.60;5.30;;;22.50;49.10;;;;;;4911278;29;20498;-64
2022/06/30 06:57:23;;;;;;;5.43;5.23;;;22.50;49.20;;;;;;4910361;29;20184;-59
2022/06/30 06:59:49;;;;;;;4.93;4.73;;;22.50;49.20;;;;;;4910334;29;20202;-64
2022/06/30 07:02:15;;;;;;;5.33;5.07;;;22.50;49.20;;;;;;4912114;29;20192;-64
2022/06/30 07:04:41;;;;;;;5.03;4.63;;;22.50;49.20;;;;;;4911520;29;20223;-60
2022/06/30 07:07:07;;;;;;;5.83;5.27;;;22.50;49.20;;;;;;4910462;29;20222;-70
2022/06/30 07:09:34;;;;;;;5.07;4.77;;;22.50;49.20;;;;;;4897499;29;20852;-59
2022/06/30 07:12:00;;;;;;;5.37;5.07;;;22.50;49.20;;;;;;4908034;29;20191;-61
2022/06/30 07:14:26;;;;;;;5.80;5.50;;;22.60;49.30;;;;;;4913520;29;20496;-62
2022/06/30 07:16:51;;;;;;;5.13;4.80;;;22.50;49.20;;;;;;4912657;29;22306;-61
2022/06/30 07:19:17;;;;;;;5.30;5.10;;;22.50;49.30;;;;;;4910940;29;20249;-62
2022/06/30 07:21:42;;;;;;;5.93;5.63;;;22.50;49.20;;;;;;4908942;29;20187;-64
2022/06/30 07:24:08;;;;;;;5.30;5.00;;;22.50;49.20;;;;;;4908882;29;20195;-59
2022/06/30 07:26:34;;;;;;;5.50;5.20;;;22.50;49.30;;;;;;4913194;29;20188;-59
2022/06/30 07:28:59;;;;;;;4.90;4.70;;;22.60;49.40;;;;;;4909441;29;20222;-63
2022/06/30 07:31:25;;;;;;;5.67;5.30;;;22.60;49.30;;;;;;4896758;29;20188;-59
2022/06/30 07:33:51;;;;;;;4.93;4.73;;;22.50;49.30;;;;;;4908377;29;20186;-59
2022/06/30 07:36:17;;;;;;;4.90;4.70;;;22.50;49.30;;;;;;4906908;29;20270;-62
2022/06/30 07:38:44;;;;;;;5.40;5.00;;;22.60;49.40;;;;;;4913125;29;20658;-60
2022/06/30 07:41:09;;;;;;;5.40;5.10;;;22.50;49.30;;;;;;4894006;29;20309;-61
2022/06/30 07:43:35;;;;;;;5.20;4.80;;;22.50;49.30;;;;;;4909584;29;21011;-61
2022/06/30 07:46:01;;;;;;;4.87;4.67;;;22.50;49.30;;;;;;4912523;29;20738;-62
2022/06/30 07:48:26;;;;;;;5.30;5.00;;;22.50;49.30;;;;;;4907412;29;20273;-61
2022/06/30 07:50:52;;;;;;;5.20;4.90;;;22.60;49.30;;;;;;4899741;29;20194;-58
2022/06/30 07:53:18;;;;;;;5.07;4.67;;;22.60;49.50;;;;;;4901749;29;20290;-61
2022/06/30 07:55:43;;;;;;;4.50;4.30;;;22.60;49.50;;;;;;4915348;29;20183;-60
2022/06/30 07:58:10;;;;;;;4.60;4.40;;;22.50;49.30;;;;;;4908317;29;20270;-63
2022/06/30 08:00:35;;;;;;;4.87;4.67;;;22.50;49.30;;;;;;4911319;29;20274;-64
2022/06/30 08:03:02;;;;;;;4.87;4.67;;;22.60;49.40;;;;;;4908904;29;20868;-61
2022/06/30 08:05:27;;;;;;;4.87;4.60;;;22.50;49.30;;;;;;4911121;29;20238;-62
2022/06/30 08:07:53;;;;;;;5.10;4.80;;;22.50;49.30;;;;;;4909073;29;20438;-58
2022/06/30 08:10:19;;;;;;;5.00;4.70;;;22.60;49.50;;;;;;4893839;29;20187;-62
2022/06/30 08:12:44;;;;;;;5.10;4.90;;;22.50;49.30;;;;;;4908727;29;20184;-61
2022/06/30 08:15:11;;;;;;;5.37;4.97;;;22.60;49.30;;;;;;4912102;29;20425;-70
2022/06/30 08:17:37;;;;;;;4.17;3.97;;;22.50;49.20;;;;;;4910703;29;20686;-59
2022/06/30 08:20:03;;;;;;;4.90;4.60;;;22.50;49.30;;;;;;4908391;29;20426;-61
2022/06/30 08:22:28;;;;;;;5.20;4.90;;;22.50;49.20;;;;;;4910580;29;20179;-64
2022/06/30 08:24:55;;;;;;;4.97;4.77;;;22.60;49.40;;;;;;4909535;29;20489;-61
2022/06/30 08:27:20;;;;;;;4.77;4.57;;;22.60;49.30;;;;;;4906174;29;20191;-59
2022/06/30 08:29:46;;;;;;;4.70;4.50;;;22.50;50.10;;;;;;4911071;29;20435;-59
2022/06/30 08:32:12;;;;;;;4.33;4.13;;;22.50;49.30;;;;;;4912961;29;20183;-62
2022/06/30 08:34:38;;;;;;;4.37;4.17;;;22.60;49.50;;;;;;4913460;29;20179;-59
2022/06/30 08:37:04;;;;;;;4.87;4.57;;;22.50;49.30;;;;;;4908977;29;20271;-61
2022/06/30 08:42:19;;;;;;;4.63;4.40;;;22.50;49.30;;;;;;4915481;29;20957;-63
2022/06/30 08:45:13;;;;;;;4.50;4.30;;;22.50;49.30;;;;;;4914024;29;20469;-60
2022/06/30 08:47:31;;;;;;;4.43;4.23;;;22.50;49.30;;;;;;4915741;29;20472;-59
2022/06/30 08:49:57;;;;;;;4.07;3.87;;;22.50;49.30;;;;;;4912967;29;20437;-59
2022/06/30 08:52:25;;;;;;;4.57;4.37;;;22.50;49.20;;;;;;4914938;29;21179;-62
2022/06/30 08:54:51;;;;;;;4.60;4.40;;;22.50;49.30;;;;;;4911979;29;20278;-61
2022/06/30 08:57:18;;;;;;;4.47;4.27;;;22.50;49.20;;;;;;4912959;29;20449;-66
2022/06/30 08:59:45;;;;;;;4.40;4.20;;;22.50;49.30;;;;;;4912061;29;20438;-66
2022/06/30 09:02:11;;;;;;;4.60;4.40;;;22.50;49.30;;;;;;4915080;29;20516;-63
2022/06/30 09:04:37;;;;;;;5.00;4.77;;;22.50;49.30;;;;;;4911300;29;20568;-59
2022/06/30 09:07:02;;;;;;;5.63;5.23;;;22.50;49.30;;;;;;4916648;29;20279;-59
2022/06/30 09:09:28;;;;;;;5.20;4.90;;;22.50;49.30;;;;;;4918336;29;20222;-58
2022/06/30 09:11:56;;;;;;;3.80;3.60;;;22.50;49.30;;;;;;4913018;29;20187;-58
2022/06/30 09:14:39;;;;;;;5.00;4.80;;;22.50;49.30;;;;;;4911623;29;20243;-59
2022/06/30 09:17:16;;;;;;;4.50;4.30;;;22.50;49.30;;;;;;4912995;29;20441;-63
2022/06/30 09:20:01;;;;;;;4.80;4.60;;;22.50;49.30;;;;;;4914763;29;20935;-61
2022/06/30 09:22:39;;;;;;;4.63;4.33;;;22.50;49.30;;;;;;4915549;29;20528;-59
2022/06/30 09:25:06;;;;;;;4.20;4.00;;;22.50;49.40;;;;;;4913222;29;20476;-61
2022/06/30 09:27:34;;;;;;;4.60;4.40;;;22.50;49.30;;;;;;4919269;29;20433;-62
2022/06/30 09:30:04;;;;;;;4.87;4.67;;;22.50;49.30;;;;;;4913590;29;20449;-59
2022/06/30 09:32:31;;;;;;;4.80;4.60;;;22.50;49.30;;;;;;4911298;29;20446;-59
2022/06/30 09:35:09;;;;;;;5.07;4.80;;;22.50;49.30;;;;;;4913694;29;20579;-62
2022/06/30 09:37:35;;;;;;;5.00;4.70;;;22.50;49.30;;;;;;4913174;29;20433;-64
2022/06/30 09:40:01;;;;;;;4.90;4.60;;;22.50;49.30;;;;;;4913565;29;20442;-66
2022/06/30 09:42:36;;;;;;;4.60;4.20;;;22.50;49.30;;;;;;4915559;29;20587;-58
2022/06/30 09:45:02;;;;;;;4.00;3.80;;;22.50;49.40;;;;;;4911672;29;20198;-59
2022/06/30 09:47:27;;;;;;;5.10;4.90;;;22.50;49.30;;;;;;4897822;29;20953;-59
2022/06/30 09:49:54;;;;;;;4.17;3.97;;;22.50;49.40;;;;;;4915878;29;20184;-61
2022/06/30 09:52:19;;;;;;;4.63;4.43;;;22.50;49.50;;;;;;4913615;29;20198;-68
2022/06/30 09:54:59;;;;;;;4.63;4.43;;;22.50;49.40;;;;;;4915169;29;20456;-59
2022/06/30 09:57:28;;;;;;;5.27;4.97;;;22.50;49.40;;;;;;4908641;29;20638;-59
2022/06/30 09:59:57;;;;;;;4.40;4.20;;;22.50;49.40;;;;;;4921072;29;20441;-59
2022/06/30 10:02:29;;;;;;;4.13;3.93;;;22.50;49.50;;;;;;4916416;29;20434;-60
2022/06/30 10:04:55;;;;;;;4.30;4.10;;;22.50;49.40;;;;;;4912616;29;20500;-61
2022/06/30 10:07:22;;;;;;;4.80;4.60;;;22.50;49.30;;;;;;4915038;29;20462;-59
2022/06/30 10:09:50;;;;;;;4.00;3.80;;;22.50;49.40;;;;;;4909978;29;20438;-64
2022/06/30 10:12:19;;;;;;;5.17;4.87;;;22.50;49.50;;;;;;4913088;29;20438;-59
2022/06/30 10:14:47;;;;;;;5.40;4.90;;;22.50;49.40;;;;;;4912871;29;20537;-65
2022/06/30 10:17:17;;;;;;;5.17;4.93;;;22.50;49.40;;;;;;4915461;29;20979;-60
2022/06/30 10:19:43;;;;;;;4.80;4.50;;;22.50;49.40;;;;;;4913793;29;20438;-59
2022/06/30 10:22:08;;;;;;;3.83;3.63;;;22.50;49.50;;;;;;4917662;29;20438;-60
2022/06/30 10:24:34;;;;;;;4.67;4.47;;;22.50;49.40;;;;;;4913046;29;20265;-59
2022/06/30 10:27:13;;;;;;;4.60;4.30;;;22.50;49.40;;;;;;4915051;29;20192;-59
2022/06/30 10:30:00;;;;;;;4.80;4.60;;;22.50;49.30;;;;;;4893955;29;20967;-58
2022/06/30 10:32:55;;;;;;;4.30;4.10;;;22.50;49.40;;;;;;4909393;29;20444;-61
2022/06/30 10:35:41;;;;;;;4.43;4.23;;;22.50;49.40;;;;;;4909012;29;20439;-62
2022/06/30 10:38:18;;;;;;;4.27;4.07;;;22.50;50.20;;;;;;4911696;29;20446;-59
2022/06/30 10:41:13;;;;;;;4.30;4.10;;;22.50;49.50;;;;;;4912023;29;20785;-62
2022/06/30 10:44:04;;;;;;;4.03;3.83;;;22.50;49.50;;;;;;4910282;29;20933;-58
2022/06/30 10:47:00;;;;;;;4.53;4.30;;;22.50;49.40;;;;;;4907564;29;20462;-65
2022/06/30 10:49:29;;;;;;;4.27;4.07;;;22.50;49.40;;;;;;4906102;29;20490;-64
2022/06/30 10:52:18;;;;;;;4.30;4.10;;;22.50;49.40;;;;;;4916386;29;20434;-68
2022/06/30 10:54:45;;;;;;;4.40;4.07;;;22.50;49.40;;;;;;4919330;29;20948;-62
2022/06/30 10:57:12;;;;;;;4.20;4.00;;;22.50;49.40;;;;;;4911341;29;20941;-71
2022/06/30 10:59:41;;;;;;;4.30;4.00;;;22.50;49.50;;;;;;4915143;29;20561;-62
2022/06/30 11:02:07;;;;;;;4.00;3.80;;;22.50;49.40;;;;;;4912354;29;20958;-58
2022/06/30 11:04:33;;;;;;;4.10;3.90;;;22.50;49.40;;;;;;4915067;29;20480;-58
2022/06/30 11:07:10;;;;;;;3.93;3.73;;;22.50;49.40;;;;;;4912608;29;20191;-60
2022/06/30 11:09:47;;;;;;;4.57;4.27;;;22.50;49.40;;;;;;4906146;29;20470;-58
2022/06/30 11:12:29;;;;;;;4.13;3.93;;;22.50;49.40;;;;;;4911858;29;20469;-59
2022/06/30 11:14:56;;;;;;;4.50;4.20;;;22.50;49.40;;;;;;4910971;29;20445;-58
2022/06/30 11:17:24;;;;;;;3.50;3.30;;;22.50;49.50;;;;;;4910015;29;20941;-58
2022/06/30 11:20:12;;;;;;;3.93;3.73;;;22.50;49.50;;;;;;4917369;29;20441;-63
2022/06/30 11:22:38;;;;;;;4.30;4.10;;;22.50;49.30;;;;;;4914087;29;20434;-59
2022/06/30 11:25:07;;;;;;;3.87;3.67;;;22.50;49.40;;;;;;4909789;29;20556;-64
2022/06/30 11:27:35;;;;;;;4.20;4.00;;;22.50;49.40;;;;;;4912989;29;20437;-58
2022/06/30 11:30:03;;;;;;;4.20;4.00;;;22.50;49.50;;;;;;4912648;29;20441;-58
2022/06/30 11:32:30;;;;;;;4.03;3.83;;;22.50;49.40;;;;;;4909802;29;20525;-58
2022/06/30 11:34:56;;;;;;;3.70;3.50;;;22.50;49.50;;;;;;4909981;29;20445;-58
2022/06/30 11:37:23;;;;;;;4.80;4.50;;;22.50;49.50;;;;;;4914305;29;20516;-58
2022/06/30 11:39:57;;;;;;;3.80;3.60;;;22.50;49.50;;;;;;4912089;29;20525;-60
2022/06/30 11:42:23;;;;;;;3.70;3.50;;;22.50;49.50;;;;;;4911939;29;20432;-59
2022/06/30 11:44:49;;;;;;;3.93;3.73;;;22.50;49.50;;;;;;4909197;29;20564;-59
2022/06/30 11:47:16;;;;;;;3.83;3.63;;;22.50;49.50;;;;;;4910517;29;20846;-67
2022/06/30 11:49:53;;;;;;;4.10;3.90;;;22.50;49.50;;;;;;4911294;29;20218;-59
2022/06/30 11:52:35;;;;;;;4.10;3.90;;;22.50;49.50;;;;;;4908832;29;20444;-68
2022/06/30 11:55:04;;;;;;;3.73;3.53;;;22.50;49.50;;;;;;4911467;29;20445;-58
2022/06/30 11:57:34;;;;;;;4.17;3.97;;;22.50;49.50;;;;;;4911961;29;20434;-70
2022/06/30 12:00:04;;;;;;;4.20;3.90;;;22.50;49.50;;;;;;4892996;29;20521;-60
2022/06/30 12:02:30;;;;;;;3.50;3.30;;;22.50;49.50;;;;;;4894830;29;20782;-64
2022/06/30 12:04:58;;;;;;;3.90;3.70;;;22.50;49.50;;;;;;4909357;29;20481;-58
2022/06/30 12:07:25;;;;;;;3.67;3.47;;;22.50;49.50;;;;;;4910776;29;20764;-72
2022/06/30 12:09:52;;;;;;;3.60;3.40;;;22.50;49.50;;;;;;4911942;29;20453;-59
2022/06/30 12:12:22;;;;;;;3.83;3.63;;;22.50;49.50;;;;;;4909689;29;20434;-65
2022/06/30 12:14:47;;;;;;;3.43;3.23;;;22.50;49.50;;;;;;4878486;29;20801;-60
2022/06/30 12:17:13;;;;;;;3.50;3.30;;;22.50;49.50;;;;;;4909908;29;20430;-58
2022/06/30 12:19:43;;;;;;;3.20;3.10;;;22.50;49.50;;;;;;4911401;29;20190;-58
2022/06/30 12:22:09;;;;;;;3.60;3.50;;;22.50;49.50;;;;;;4910648;29;20547;-58
2022/06/30 12:24:38;;;;;;;4.27;4.07;;;22.50;49.50;;;;;;4907346;29;20473;-61
2022/06/30 12:27:04;;;;;;;3.43;3.30;;;22.50;49.50;;;;;;4909930;29;20180;-58
2022/06/30 12:29:30;;;;;;;4.00;3.80;;;22.50;49.50;;;;;;4910154;29;20436;-61
2022/06/30 12:32:02;;;;;;;4.10;3.90;;;22.50;49.50;;;;;;4911407;29;20437;-62
2022/06/30 12:34:28;;;;;;;4.07;3.87;;;22.50;49.50;;;;;;4891882;29;20796;-64
2022/06/30 12:37:01;;;;;;;4.10;3.90;;;22.50;49.50;;;;;;4910470;29;20480;-58
2022/06/30 12:39:27;;;;;;;3.60;3.40;;;22.50;49.50;;;;;;4907397;29;20552;-70
2022/06/30 12:42:01;;;;;;;3.23;3.13;;;22.50;50.30;;;;;;4905909;29;20456;-58
2022/06/30 12:44:36;;;;;;;3.37;3.17;;;22.50;49.60;;;;;;4904478;29;20581;-58
2022/06/30 12:47:06;;;;;;;3.70;3.50;;;22.50;49.50;;;;;;4906409;29;20454;-58
2022/06/30 12:49:32;;;;;;;4.00;3.80;;;22.50;49.50;;;;;;4909663;29;20533;-57
2022/06/30 12:51:58;;;;;;;3.30;3.10;;;22.50;49.50;;;;;;4909107;29;20433;-58
2022/06/30 12:54:25;;;;;;;3.70;3.50;;;22.50;49.50;;;;;;4904068;29;20450;-58
2022/06/30 12:57:00;;;;;;;4.10;3.90;;;22.50;49.50;;;;;;4906097;29;20654;-60
2022/06/30 12:59:26;;;;;;;3.80;3.60;;;22.50;49.50;;;;;;4911170;29;20491;-58
2022/06/30 13:01:57;;;;;;;3.97;3.77;;;22.50;49.60;;;;;;4907233;29;20442;-58
2022/06/30 13:04:24;;;;;;;3.83;3.63;;;22.50;49.50;;;;;;4905762;29;20617;-59